createdAt,value
2023-02-22T00:00:36.874Z,26.77
2023-02-22T00:04:49.243Z,26.77
2023-02-22T00:09:03.950Z,24.55
2023-02-22T00:13:16.473Z,25.85
2023-02-22T00:17:30.755Z,25.95
2023-02-22T00:21:45.152Z,23.08
2023-02-22T00:25:59.400Z,23.35
2023-02-22T00:30:19.379Z,22.05
2023-02-22T00:34:32.095Z,25.27
2023-02-22T00:38:44.650Z,25.70
2023-02-22T00:42:58.582Z,24.77
2023-02-22T00:47:11.405Z,25.73
2023-02-22T00:51:29.050Z,25.52
2023-02-22T00:55:41.547Z,23.88
2023-02-22T00:59:54.145Z,21.45
2023-02-22T01:04:07.148Z,20.35
2023-02-22T01:08:19.852Z,20.15
2023-02-22T01:12:36.147Z,28.98
2023-02-22T01:16:51.259Z,28.52
2023-02-22T01:21:06.932Z,29.05
2023-02-22T01:25:24.090Z,31.50
2023-02-22T01:29:36.392Z,28.60
2023-02-22T01:33:54.010Z,29.42
2023-02-22T01:38:07.080Z,28.33
2023-02-22T01:42:20.332Z,28.10
2023-02-22T01:46:34.072Z,26.95
2023-02-22T01:51:12.849Z,25.90
2023-02-22T01:55:26.012Z,24.27
2023-02-22T01:59:42.246Z,21.92
2023-02-22T02:03:58.590Z,18.88
2023-02-22T02:08:59.030Z,16.85
2023-02-22T02:13:11.695Z,15.10
2023-02-22T02:17:24.383Z,14.45
2023-02-22T02:22:08.901Z,13.75
2023-02-22T02:26:39.971Z,14.68
2023-02-22T02:31:09.781Z,14.25
2023-02-22T02:35:34.788Z,14.82
2023-02-22T02:40:18.527Z,14.88
2023-02-22T02:45:02.959Z,15.63
2023-02-22T02:49:47.691Z,16.25
2023-02-22T02:54:02.286Z,19.60
2023-02-22T02:58:22.261Z,21.48
2023-02-22T03:02:43.447Z,23.77
2023-02-22T03:07:13.585Z,14.38
2023-02-22T03:11:36.957Z,14.70
2023-02-22T03:16:09.776Z,14.60
2023-02-22T03:20:37.913Z,13.40
2023-02-22T03:24:56.188Z,12.13
2023-02-22T03:29:13.730Z,11.35
2023-02-22T03:33:36.636Z,10.80
2023-02-22T03:37:54.154Z,10.68
2023-02-22T03:42:15.954Z,10.32
2023-02-22T03:46:29.877Z,10.25
2023-02-22T03:50:51.448Z,10.30
2023-02-22T03:55:11.335Z,10.50
2023-02-22T03:59:27.837Z,10.93
2023-02-22T04:03:40.648Z,10.27
2023-02-22T04:07:57.650Z,10.50
2023-02-22T04:12:10.374Z,9.73
2023-02-22T04:16:37.540Z,9.60
2023-02-22T04:20:53.383Z,10.70
2023-02-22T04:25:34.989Z,10.48
2023-02-22T04:29:57.352Z,9.90
2023-02-22T04:34:09.920Z,10.13
2023-02-22T04:38:26.778Z,11.63
2023-02-22T04:42:41.106Z,10.27
2023-02-22T04:46:53.711Z,13.13
2023-02-22T04:51:06.678Z,16.55
2023-02-22T04:55:19.277Z,16.77
2023-02-22T04:59:33.250Z,17.70
2023-02-22T05:03:47.708Z,18.30
2023-02-22T05:08:00.097Z,16.88
2023-02-22T05:12:12.730Z,16.63
2023-02-22T05:16:25.283Z,19.13
2023-02-22T05:20:37.583Z,19.48
2023-02-22T05:24:49.884Z,20.58
2023-02-22T05:29:02.596Z,21.00
2023-02-22T05:33:14.873Z,20.67
2023-02-22T05:37:27.735Z,19.63
2023-02-22T05:41:40.238Z,19.40
2023-02-22T05:45:54.211Z,20.27
2023-02-22T05:50:07.860Z,19.08
2023-02-22T05:54:20.435Z,18.58
2023-02-22T05:58:32.842Z,16.65
2023-02-22T06:02:45.594Z,14.15
2023-02-22T06:06:58.091Z,14.07
2023-02-22T06:11:10.992Z,12.35
2023-02-22T06:15:25.060Z,12.70
2023-02-22T06:19:37.491Z,13.30
2023-02-22T06:23:49.750Z,12.35
2023-02-22T06:28:02.242Z,12.82
2023-02-22T06:32:16.662Z,12.30
2023-02-22T06:36:29.658Z,11.50
2023-02-22T06:40:41.997Z,14.05
2023-02-22T06:44:54.388Z,11.43
2023-02-22T06:49:06.926Z,12.65
2023-02-22T06:53:19.316Z,11.93
2023-02-22T06:57:31.617Z,12.23
2023-02-22T07:01:45.914Z,12.23
2023-02-22T07:05:58.316Z,11.98
2023-02-22T07:10:24.105Z,12.73
2023-02-22T07:14:38.526Z,13.18
2023-02-22T07:18:50.931Z,20.83
2023-02-22T07:23:03.750Z,18.45
2023-02-22T07:27:16.108Z,17.02
2023-02-22T07:31:29.709Z,15.75
2023-02-22T07:35:47.516Z,18.65
2023-02-22T07:39:59.941Z,19.67
2023-02-22T07:44:13.657Z,22.45
2023-02-22T07:48:28.443Z,22.02
2023-02-22T07:52:40.833Z,22.88
2023-02-22T07:56:54.166Z,23.70
2023-02-22T08:01:06.605Z,24.10
2023-02-22T08:05:19.601Z,22.35
2023-02-22T08:09:31.881Z,20.42
2023-02-22T08:13:44.355Z,21.30
2023-02-22T08:17:58.463Z,21.95
2023-02-22T08:22:10.845Z,20.27
2023-02-22T08:26:24.139Z,20.77
2023-02-22T08:30:40.226Z,21.08
2023-02-22T08:34:53.176Z,22.60
2023-02-22T08:39:05.560Z,23.02
2023-02-22T08:43:19.925Z,23.65
2023-02-22T08:47:32.344Z,23.48
2023-02-22T08:51:44.762Z,25.25
2023-02-22T08:55:57.220Z,20.50
2023-02-22T09:00:10.366Z,18.48
2023-02-22T09:04:22.796Z,12.88
2023-02-22T09:08:36.665Z,14.30
2023-02-22T09:12:49.056Z,14.15
2023-02-22T09:17:03.079Z,10.48
2023-02-22T09:21:17.388Z,12.73
2023-02-22T09:25:30.559Z,13.82
2023-02-22T09:29:43.790Z,11.68
2023-02-22T09:33:56.239Z,12.80
2023-02-22T09:38:10.705Z,12.50
2023-02-22T09:42:42.707Z,12.38
2023-02-22T09:46:59.137Z,12.00
2023-02-22T09:51:18.529Z,11.35
2023-02-22T09:55:35.981Z,11.70
2023-02-22T10:00:13.302Z,11.73
2023-02-22T10:04:36.312Z,10.35
2023-02-22T10:08:54.115Z,9.95
2023-02-22T10:13:27.735Z,10.20
2023-02-22T10:18:19.782Z,11.35
2023-02-22T10:22:38.727Z,12.00
2023-02-22T10:26:52.231Z,12.10
2023-02-22T10:31:09.143Z,12.18
2023-02-22T10:35:26.942Z,12.13
2023-02-22T10:39:40.380Z,11.95
2023-02-22T10:43:52.821Z,11.27
2023-02-22T10:48:11.853Z,12.02
2023-02-22T10:52:28.465Z,11.02
2023-02-22T10:56:52.893Z,10.77
2023-02-22T11:01:20.878Z,11.77
2023-02-22T11:05:37.706Z,12.00
2023-02-22T11:10:02.080Z,12.90
2023-02-22T11:14:27.010Z,11.77
2023-02-22T11:18:39.567Z,11.40
2023-02-22T11:23:01.319Z,10.45
2023-02-22T11:27:29.065Z,8.65
2023-02-22T11:31:44.728Z,8.60
2023-02-22T11:35:59.734Z,8.18
2023-02-22T11:40:23.033Z,7.50
2023-02-22T11:44:35.730Z,7.57
2023-02-22T11:49:12.183Z,8.60
2023-02-22T11:53:44.556Z,9.23
2023-02-22T11:58:22.102Z,8.40
2023-02-22T12:02:57.568Z,7.97
2023-02-22T12:07:44.902Z,8.00
2023-02-22T12:12:18.904Z,7.45
2023-02-22T12:17:08.172Z,7.20
2023-02-22T12:21:24.757Z,6.78
2023-02-22T12:25:41.895Z,8.00
2023-02-22T12:30:29.256Z,7.88
2023-02-22T12:34:50.886Z,7.47
2023-02-22T12:39:12.018Z,7.47
2023-02-22T12:43:41.507Z,7.40
2023-02-22T12:48:18.928Z,6.55
2023-02-22T12:53:00.847Z,6.95
2023-02-22T12:57:44.967Z,6.93
2023-02-22T13:02:10.187Z,8.27
2023-02-22T13:06:35.360Z,6.93
2023-02-22T13:11:09.224Z,7.15
2023-02-22T13:15:30.358Z,7.28
2023-02-22T13:19:56.187Z,7.47
2023-02-22T13:24:26.495Z,6.90
2023-02-22T13:28:47.572Z,7.30
2023-02-22T13:33:14.988Z,8.68
2023-02-22T13:37:46.233Z,7.55
2023-02-22T13:42:14.385Z,8.13
2023-02-22T13:46:44.710Z,7.80
2023-02-22T13:51:11.965Z,8.00
2023-02-22T13:55:30.273Z,7.88
2023-02-22T13:59:42.735Z,7.97
2023-02-22T14:04:29.766Z,7.68
2023-02-22T14:08:42.706Z,8.02
2023-02-22T14:13:05.153Z,7.88
2023-02-22T14:17:35.278Z,8.48
2023-02-22T14:26:16.751Z,8.82
2023-02-22T14:30:32.299Z,9.00
2023-02-22T14:34:54.368Z,9.73
2023-02-22T14:39:21.201Z,9.20
2023-02-22T14:43:36.934Z,9.10
2023-02-22T14:48:04.163Z,8.65
2023-02-22T14:52:30.804Z,8.57
2023-02-22T14:56:51.217Z,9.25
2023-02-22T15:01:20.369Z,9.55
2023-02-22T15:05:39.386Z,8.63
2023-02-22T15:09:54.390Z,10.97
2023-02-22T15:14:27.040Z,10.80
2023-02-22T15:18:45.304Z,9.63
2023-02-22T15:23:00.854Z,10.13
2023-02-22T15:27:20.081Z,9.63
2023-02-22T15:31:35.453Z,10.70
2023-02-22T15:35:55.066Z,10.25
2023-02-22T15:40:17.766Z,9.90
2023-02-22T15:44:36.055Z,10.38
2023-02-22T15:49:06.870Z,10.23
2023-02-22T15:53:27.210Z,9.90
2023-02-22T15:57:39.672Z,10.93
2023-02-22T16:01:54.223Z,10.43
2023-02-22T16:06:13.243Z,10.18
2023-02-22T16:10:30.243Z,9.73
2023-02-22T16:14:45.093Z,11.93
2023-02-22T16:19:24.682Z,12.32
2023-02-22T16:23:52.907Z,12.18
2023-02-22T16:28:32.132Z,13.73
2023-02-22T16:32:45.767Z,14.02
2023-02-22T16:36:58.810Z,17.52
2023-02-22T16:41:11.312Z,19.23
2023-02-22T16:45:23.616Z,23.00
2023-02-22T16:49:36.732Z,24.23
2023-02-22T16:53:50.238Z,24.42
2023-02-22T16:58:03.293Z,23.30
2023-02-22T17:02:16.893Z,22.50
2023-02-22T17:06:30.141Z,22.50
2023-02-22T17:10:42.906Z,22.20
2023-02-22T17:14:55.830Z,24.15
2023-02-22T17:19:16.748Z,23.83
2023-02-22T17:23:30.841Z,24.40
2023-02-22T17:27:43.194Z,24.83
2023-02-22T17:31:56.122Z,24.40
2023-02-22T17:36:08.728Z,27.00
2023-02-22T17:40:22.637Z,31.85
2023-02-22T17:44:35.589Z,33.92
2023-02-22T17:48:50.981Z,32.95
2023-02-22T17:53:03.685Z,30.45
2023-02-22T17:57:16.043Z,27.85
2023-02-22T18:01:31.119Z,28.98
2023-02-22T18:05:46.675Z,30.33
2023-02-22T18:09:59.677Z,30.77
2023-02-22T18:14:12.596Z,30.80
2023-02-22T18:18:25.082Z,32.47
2023-02-22T18:22:38.360Z,31.48
2023-02-22T18:26:51.046Z,33.33
2023-02-22T18:31:10.456Z,36.17
2023-02-22T18:35:24.728Z,36.10
2023-02-22T18:39:43.005Z,42.28
2023-02-22T18:43:58.223Z,39.97
2023-02-22T18:48:10.878Z,43.40
2023-02-22T18:52:24.210Z,44.67
2023-02-22T18:56:36.698Z,43.42
2023-02-22T19:00:49.779Z,45.55
2023-02-22T19:05:02.931Z,43.15
2023-02-22T19:09:17.841Z,45.75
2023-02-22T19:13:31.473Z,47.22
2023-02-22T19:17:44.016Z,45.00
2023-02-22T19:21:56.660Z,46.50
2023-02-22T19:26:10.067Z,44.67
2023-02-22T19:30:23.928Z,45.25
2023-02-22T19:34:37.360Z,45.78
2023-02-22T19:38:50.023Z,46.45
2023-02-22T19:43:02.639Z,46.85
2023-02-22T19:47:15.143Z,46.33
2023-02-22T19:51:29.083Z,39.22
2023-02-22T19:55:41.602Z,40.92
2023-02-22T19:59:55.097Z,41.22
2023-02-22T20:04:10.609Z,39.80
2023-02-22T20:08:23.119Z,35.85
2023-02-22T20:12:37.663Z,36.42
2023-02-22T20:16:51.812Z,31.67
2023-02-22T20:21:09.801Z,32.42
2023-02-22T20:25:22.282Z,32.58
2023-02-22T20:29:35.788Z,31.48
2023-02-22T20:33:49.967Z,31.75
2023-02-22T20:38:03.161Z,31.83
2023-02-22T20:42:15.846Z,31.83
2023-02-22T20:46:31.751Z,30.00
2023-02-22T20:50:44.438Z,30.02
2023-02-22T20:54:57.831Z,29.52
2023-02-22T20:59:15.832Z,29.33
2023-02-22T21:03:28.314Z,29.08
2023-02-22T21:07:41.059Z,28.92
2023-02-22T21:11:53.652Z,30.58
2023-02-22T21:16:08.619Z,29.58
2023-02-22T21:20:22.280Z,27.73
2023-02-22T21:24:36.782Z,27.27
2023-02-22T21:28:51.373Z,30.52
2023-02-22T21:33:04.102Z,28.48
2023-02-22T21:37:18.482Z,27.17
2023-02-22T21:41:31.599Z,27.05
2023-02-22T21:45:44.205Z,26.88
2023-02-22T21:49:56.589Z,27.15
2023-02-22T21:54:12.339Z,27.63
2023-02-22T21:58:24.731Z,28.08
2023-02-22T22:02:38.392Z,27.05
2023-02-22T22:06:53.863Z,27.23
2023-02-22T22:11:09.542Z,26.88
2023-02-22T22:15:23.825Z,26.83
2023-02-22T22:19:41.907Z,27.25
2023-02-22T22:23:56.359Z,27.70
2023-02-22T22:28:11.602Z,26.48
2023-02-22T22:32:26.883Z,27.02
2023-02-22T22:36:39.352Z,27.20
2023-02-22T22:40:53.212Z,26.83
2023-02-22T22:45:06.019Z,27.05
2023-02-22T22:49:18.743Z,26.55
2023-02-22T22:53:32.263Z,27.50
2023-02-22T22:57:44.786Z,27.25
2023-02-22T23:01:57.217Z,27.52
2023-02-22T23:06:13.587Z,28.75
2023-02-22T23:10:28.584Z,26.42
2023-02-22T23:14:44.436Z,28.10
2023-02-22T23:18:56.913Z,27.13
2023-02-22T23:23:15.032Z,28.70
2023-02-22T23:27:28.386Z,28.70
2023-02-22T23:31:41.459Z,27.73
2023-02-22T23:35:53.906Z,27.80
2023-02-22T23:40:19.697Z,27.65
2023-02-22T23:44:32.709Z,28.38
2023-02-22T23:48:51.081Z,27.65
2023-02-22T23:53:06.277Z,26.80
2023-02-22T23:57:19.866Z,28.05
